createdAt,value
2018-11-23T00:01:11.685Z,8.00
2018-11-23T00:03:40.215Z,8.00
2018-11-23T00:06:08.848Z,8.00
2018-11-23T00:08:37.512Z,8.00
2018-11-23T00:11:06.063Z,8.00
2018-11-23T00:13:35.726Z,8.00
2018-11-23T00:16:04.322Z,8.00
2018-11-23T00:18:33.491Z,7.90
2018-11-23T00:21:02.033Z,7.80
2018-11-23T00:23:30.725Z,7.80
2018-11-23T00:25:59.380Z,7.80
2018-11-23T00:28:27.996Z,7.70
2018-11-23T00:30:56.653Z,7.70
2018-11-23T00:33:25.428Z,7.70
2018-11-23T00:35:54.228Z,7.70
2018-11-23T00:38:23.024Z,7.60
2018-11-23T00:40:51.783Z,7.70
2018-11-23T00:43:20.361Z,7.70
2018-11-23T00:45:48.923Z,7.70
2018-11-23T00:48:17.562Z,7.70
2018-11-23T00:50:46.462Z,7.60
2018-11-23T00:53:15.092Z,7.60
2018-11-23T00:55:43.693Z,7.60
2018-11-23T00:58:12.339Z,7.60
2018-11-23T01:00:40.952Z,7.60
2018-11-23T01:03:09.505Z,7.70
2018-11-23T01:05:38.047Z,7.70
2018-11-23T01:08:06.700Z,7.70
2018-11-23T01:10:36.002Z,7.70
2018-11-23T01:13:04.968Z,7.70
2018-11-23T01:15:34.069Z,7.70
2018-11-23T01:18:02.830Z,7.70
2018-11-23T01:20:31.521Z,7.70
2018-11-23T01:23:00.197Z,7.60
2018-11-23T01:25:29.181Z,7.60
2018-11-23T01:27:57.949Z,7.70
2018-11-23T01:30:30.839Z,7.70
2018-11-23T01:32:59.534Z,7.80
2018-11-23T01:35:28.285Z,7.80
2018-11-23T01:37:56.960Z,7.80
2018-11-23T01:40:26.866Z,7.90
2018-11-23T01:42:55.894Z,7.90
2018-11-23T01:45:24.572Z,7.90
2018-11-23T01:47:53.380Z,7.90
2018-11-23T01:50:23.347Z,7.90
2018-11-23T01:52:52.262Z,7.90
2018-11-23T01:55:21.730Z,7.90
2018-11-23T01:57:50.333Z,7.80
2018-11-23T02:00:21.106Z,7.80
2018-11-23T02:02:50.289Z,7.80
2018-11-23T02:05:18.862Z,7.80
2018-11-23T02:07:47.430Z,7.90
2018-11-23T02:10:17.330Z,7.90
2018-11-23T02:12:45.947Z,7.80
2018-11-23T02:15:16.542Z,7.80
2018-11-23T02:17:45.448Z,7.80
2018-11-23T02:20:15.317Z,7.80
2018-11-23T02:22:43.891Z,7.80
2018-11-23T02:25:12.790Z,7.80
2018-11-23T02:27:41.361Z,7.90
2018-11-23T02:30:15.991Z,7.90
2018-11-23T02:32:45.137Z,7.90
2018-11-23T02:35:14.605Z,7.80
2018-11-23T02:37:43.249Z,7.70
2018-11-23T02:40:12.997Z,7.70
2018-11-23T02:42:41.650Z,7.70
2018-11-23T02:45:12.658Z,7.60
2018-11-23T02:47:42.019Z,7.50
2018-11-23T02:50:10.651Z,7.50
2018-11-23T02:52:39.767Z,7.40
2018-11-23T02:55:09.167Z,7.40
2018-11-23T02:57:37.790Z,7.40
2018-11-23T03:00:09.022Z,7.40
2018-11-23T03:02:37.605Z,7.50
2018-11-23T03:05:07.200Z,7.60
2018-11-23T03:07:36.335Z,7.50
2018-11-23T03:10:05.172Z,7.50
2018-11-23T03:12:33.857Z,7.50
2018-11-23T03:15:02.550Z,7.50
2018-11-23T03:17:31.187Z,7.60
2018-11-23T03:19:59.779Z,7.60
2018-11-23T03:22:28.456Z,7.60
2018-11-23T03:24:58.270Z,7.60
2018-11-23T03:27:26.953Z,7.60
2018-11-23T03:29:56.231Z,7.60
2018-11-23T03:32:24.845Z,7.60
2018-11-23T03:34:53.525Z,7.60
2018-11-23T03:37:22.104Z,7.60
2018-11-23T03:39:50.639Z,7.50
2018-11-23T03:42:19.197Z,7.50
2018-11-23T03:44:47.852Z,7.60
2018-11-23T03:47:16.502Z,7.70
2018-11-23T03:49:44.996Z,7.60
2018-11-23T03:52:13.518Z,7.60
2018-11-23T03:54:42.136Z,7.70
2018-11-23T03:57:10.669Z,7.70
2018-11-23T03:59:39.261Z,7.70
2018-11-23T04:02:08.493Z,7.80
2018-11-23T04:04:37.149Z,7.80
2018-11-23T04:07:05.794Z,7.80
2018-11-23T04:09:34.659Z,7.80
2018-11-23T04:12:03.181Z,7.80
2018-11-23T04:14:31.746Z,7.90
2018-11-23T04:17:00.308Z,8.00
2018-11-23T04:19:28.808Z,8.00
2018-11-23T04:21:57.818Z,8.00
2018-11-23T04:24:26.501Z,8.00
2018-11-23T04:26:56.155Z,8.00
2018-11-23T04:29:24.768Z,8.00
2018-11-23T04:31:53.533Z,8.00
2018-11-23T04:34:22.114Z,8.00
2018-11-23T04:36:50.779Z,8.00
2018-11-23T04:39:19.398Z,8.00
2018-11-23T04:41:47.938Z,8.10
2018-11-23T04:44:16.591Z,8.10
2018-11-23T04:46:45.365Z,8.10
2018-11-23T04:49:13.883Z,8.10
2018-11-23T04:51:42.533Z,8.20
2018-11-23T04:54:11.159Z,8.20
2018-11-23T04:56:40.221Z,8.20
2018-11-23T04:59:08.830Z,8.10
2018-11-23T05:01:37.459Z,8.10
2018-11-23T05:04:06.235Z,8.00
2018-11-23T05:06:36.418Z,8.00
2018-11-23T05:09:07.260Z,7.90
2018-11-23T05:11:35.804Z,7.90
2018-11-23T05:14:05.725Z,7.90
2018-11-23T05:16:34.386Z,7.90
2018-11-23T05:19:02.951Z,7.90
2018-11-23T05:21:31.570Z,7.90
2018-11-23T05:24:00.155Z,7.80
2018-11-23T05:26:29.719Z,7.70
2018-11-23T05:28:58.546Z,7.60
2018-11-23T05:31:27.206Z,7.60
2018-11-23T05:33:56.062Z,7.60
2018-11-23T05:36:24.682Z,7.60
2018-11-23T05:38:53.230Z,7.70
2018-11-23T05:41:22.077Z,7.70
2018-11-23T05:43:50.802Z,7.70
2018-11-23T05:46:19.587Z,7.80
2018-11-23T05:48:48.260Z,7.80
2018-11-23T05:51:16.849Z,7.80
2018-11-23T05:53:45.619Z,7.80
2018-11-23T06:01:27.673Z,7.80
2018-11-23T06:03:56.626Z,7.80
2018-11-23T06:06:25.956Z,7.80
2018-11-23T06:08:53.994Z,7.70
2018-11-23T06:11:22.987Z,7.70
2018-11-23T06:13:51.599Z,7.70
2018-11-23T06:16:21.353Z,7.60
2018-11-23T06:18:49.964Z,7.60
2018-11-23T06:21:18.605Z,7.60
2018-11-23T06:23:47.247Z,7.60
2018-11-23T06:26:18.168Z,7.50
2018-11-23T06:28:46.777Z,7.50
2018-11-23T06:31:15.338Z,7.50
2018-11-23T06:33:46.138Z,7.50
2018-11-23T06:36:14.705Z,7.50
2018-11-23T06:38:43.517Z,7.50
2018-11-23T06:41:12.335Z,7.60
2018-11-23T06:43:40.838Z,7.60
2018-11-23T06:46:11.577Z,7.60
2018-11-23T06:48:40.111Z,7.60
2018-11-23T06:51:09.493Z,7.60
2018-11-23T06:53:38.161Z,7.60
2018-11-23T06:56:07.255Z,7.50
2018-11-23T06:58:37.121Z,7.50
2018-11-23T07:01:06.024Z,7.40
2018-11-23T07:03:34.677Z,7.40
2018-11-23T07:06:03.306Z,7.40
2018-11-23T07:08:32.149Z,7.50
2018-11-23T07:11:02.104Z,7.50
2018-11-23T07:13:31.398Z,7.50
2018-11-23T07:15:59.982Z,7.50
2018-11-23T07:18:28.869Z,7.50
2018-11-23T07:20:57.605Z,7.50
2018-11-23T07:23:26.108Z,7.50
2018-11-23T07:25:54.797Z,7.50
2018-11-23T07:28:23.377Z,7.60
2018-11-23T07:30:51.933Z,7.60
2018-11-23T07:33:20.459Z,7.70
2018-11-23T07:35:48.997Z,7.80
2018-11-23T07:38:17.586Z,7.90
2018-11-23T07:40:57.330Z,7.90
2018-11-23T07:43:25.950Z,7.90
2018-11-23T07:45:55.930Z,7.90
2018-11-23T07:48:24.621Z,8.00
2018-11-23T07:51:02.022Z,8.00
2018-11-23T07:53:30.609Z,8.00
2018-11-23T07:55:59.202Z,7.90
2018-11-23T07:58:27.735Z,8.00
2018-11-23T08:00:56.263Z,8.00
2018-11-23T08:03:24.808Z,8.10
2018-11-23T08:05:53.394Z,8.00
2018-11-23T08:08:22.218Z,8.10
2018-11-23T08:10:51.688Z,8.10
2018-11-23T08:13:21.296Z,8.10
2018-11-23T08:15:50.371Z,8.00
2018-11-23T08:18:19.037Z,8.00
2018-11-23T08:20:47.725Z,8.00
2018-11-23T08:23:17.314Z,7.90
2018-11-23T08:25:45.995Z,7.90
2018-11-23T08:28:14.573Z,7.90
2018-11-23T08:30:43.048Z,7.90
2018-11-23T08:33:11.621Z,7.90
2018-11-23T08:35:40.134Z,7.90
2018-11-23T08:38:08.795Z,7.90
2018-11-23T08:40:37.374Z,7.90
2018-11-23T08:43:06.144Z,7.90
2018-11-23T08:45:34.709Z,7.90
2018-11-23T08:48:03.236Z,7.90
2018-11-23T08:50:31.880Z,8.00
2018-11-23T08:53:00.373Z,8.00
2018-11-23T08:55:29.143Z,8.10
2018-11-23T08:57:57.728Z,8.20
2018-11-23T09:00:27.436Z,8.20
2018-11-23T09:02:59.694Z,8.30
2018-11-23T09:05:28.209Z,8.40
2018-11-23T09:07:57.548Z,8.50
2018-11-23T09:10:27.525Z,8.60
2018-11-23T09:12:58.621Z,8.60
2018-11-23T09:15:27.298Z,8.60
2018-11-23T09:17:55.823Z,8.70
2018-11-23T09:20:24.471Z,8.70
2018-11-23T09:22:53.322Z,8.80
2018-11-23T09:25:23.211Z,8.80
2018-11-23T09:27:53.053Z,8.90
2018-11-23T09:30:22.956Z,9.00
2018-11-23T09:32:53.647Z,9.10
2018-11-23T09:35:22.342Z,9.20
2018-11-23T09:37:51.242Z,9.30
2018-11-23T09:40:22.922Z,9.50
2018-11-23T09:42:51.774Z,9.50
2018-11-23T09:45:21.694Z,9.60
2018-11-23T09:47:51.762Z,9.70
2018-11-23T09:50:21.645Z,9.70
2018-11-23T09:52:51.597Z,9.80
2018-11-23T09:55:20.917Z,9.90
2018-11-23T09:57:49.756Z,9.90
2018-11-23T10:00:21.764Z,9.90
2018-11-23T10:02:51.236Z,9.90
2018-11-23T10:05:20.324Z,10.00
2018-11-23T10:07:50.248Z,10.00
2018-11-23T10:10:19.768Z,10.00
2018-11-23T10:12:49.367Z,9.90
2018-11-23T10:15:18.539Z,9.90
2018-11-23T10:17:47.712Z,9.90
2018-11-23T10:20:18.266Z,10.00
2018-11-23T10:22:47.234Z,10.20
2018-11-23T10:25:18.458Z,10.20
2018-11-23T10:27:47.350Z,10.20
2018-11-23T10:30:18.392Z,10.30
2018-11-23T10:32:47.954Z,10.40
2018-11-23T10:35:16.817Z,10.40
2018-11-23T10:37:46.760Z,10.50
2018-11-23T10:40:17.165Z,10.60
2018-11-23T10:42:46.044Z,10.70
2018-11-23T10:45:17.423Z,10.70
2018-11-23T10:47:47.546Z,10.60
2018-11-23T10:50:18.601Z,10.60
2018-11-23T10:52:46.236Z,10.70
2018-11-23T10:55:17.381Z,10.80
2018-11-23T10:57:46.697Z,10.80
2018-11-23T11:00:21.479Z,10.90
2018-11-23T11:02:55.930Z,11.00
2018-11-23T11:05:29.806Z,11.10
2018-11-23T11:08:00.635Z,11.20
2018-11-23T11:10:29.308Z,11.20
2018-11-23T11:12:58.026Z,11.30
2018-11-23T11:15:26.565Z,11.30
2018-11-23T11:17:55.522Z,11.40
2018-11-23T11:20:24.180Z,11.40
2018-11-23T11:22:53.840Z,11.40
2018-11-23T11:25:22.469Z,11.40
2018-11-23T11:27:51.070Z,11.40
2018-11-23T11:30:20.777Z,11.50
2018-11-23T11:32:49.874Z,11.50
2018-11-23T11:35:18.494Z,11.50
2018-11-23T11:37:47.053Z,11.60
2018-11-23T11:40:17.781Z,11.60
2018-11-23T11:42:46.414Z,11.70
2018-11-23T11:45:18.195Z,11.70
2018-11-23T11:47:47.276Z,11.80
2018-11-23T11:50:16.003Z,11.80
2018-11-23T11:52:46.042Z,11.80
2018-11-23T11:55:16.026Z,11.80
2018-11-23T11:57:45.291Z,11.90
2018-11-23T12:00:16.536Z,11.90
2018-11-23T12:02:45.128Z,11.90
2018-11-23T12:05:14.200Z,11.90
2018-11-23T12:07:42.756Z,12.00
2018-11-23T12:10:14.280Z,11.90
2018-11-23T12:12:42.789Z,11.90
2018-11-23T12:17:51.108Z,12.00
2018-11-23T12:20:21.166Z,12.10
2018-11-23T12:22:49.917Z,12.10
2018-11-23T12:25:19.466Z,12.20
2018-11-23T12:27:47.986Z,12.20
2018-11-23T12:30:17.796Z,12.30
2018-11-23T12:32:47.348Z,12.30
2018-11-23T12:35:16.821Z,12.30
2018-11-23T12:37:45.556Z,12.30
2018-11-23T12:40:16.069Z,12.40
2018-11-23T12:42:45.233Z,12.40
2018-11-23T12:45:22.978Z,12.40
2018-11-23T12:47:51.513Z,12.50
2018-11-23T12:50:21.592Z,12.50
2018-11-23T12:52:50.428Z,12.60
2018-11-23T12:55:19.370Z,12.60
2018-11-23T12:57:47.964Z,12.60
2018-11-23T13:00:24.347Z,12.60
2018-11-23T13:03:09.588Z,12.70
2018-11-23T13:05:38.224Z,12.70
2018-11-23T13:08:07.378Z,12.80
2018-11-23T13:10:36.778Z,12.80
2018-11-23T13:13:05.948Z,12.80
2018-11-23T13:15:35.260Z,12.90
2018-11-23T13:18:03.978Z,12.90
2018-11-23T13:20:33.257Z,13.00
2018-11-23T13:23:01.981Z,13.00
2018-11-23T13:25:31.951Z,13.00
2018-11-23T13:28:00.803Z,13.00
2018-11-23T13:30:31.830Z,13.00
2018-11-23T13:33:01.016Z,13.10
2018-11-23T13:35:29.689Z,13.10
2018-11-23T13:37:58.411Z,13.10
2018-11-23T13:40:28.138Z,13.20
2018-11-23T13:42:57.660Z,13.20
2018-11-23T13:45:28.073Z,13.20
2018-11-23T13:47:56.617Z,13.30
2018-11-23T13:50:25.919Z,13.20
2018-11-23T13:52:56.143Z,13.20
2018-11-23T13:55:25.110Z,13.30
2018-11-23T13:57:56.019Z,13.30
2018-11-23T14:00:26.702Z,13.30
2018-11-23T14:02:55.381Z,13.40
2018-11-23T14:05:25.763Z,13.40
2018-11-23T14:07:56.070Z,13.40
2018-11-23T14:10:25.788Z,13.40
2018-11-23T14:12:54.851Z,13.40
2018-11-23T14:15:25.502Z,13.40
2018-11-23T14:17:55.272Z,13.40
2018-11-23T14:20:24.511Z,13.40
2018-11-23T14:22:55.548Z,13.40
2018-11-23T14:25:25.571Z,13.40
2018-11-23T14:27:54.909Z,13.40
2018-11-23T14:30:25.051Z,13.40
2018-11-23T14:32:54.084Z,13.40
2018-11-23T14:35:24.205Z,13.40
2018-11-23T14:37:58.748Z,13.40
2018-11-23T14:40:27.784Z,13.40
2018-11-23T14:42:56.821Z,13.40
2018-11-23T14:45:28.849Z,13.40
2018-11-23T14:47:58.449Z,13.40
2018-11-23T14:50:29.237Z,13.40
2018-11-23T14:52:58.596Z,13.40
2018-11-23T14:55:27.309Z,13.40
2018-11-23T14:57:57.072Z,13.40
2018-11-23T15:00:29.249Z,13.40
2018-11-23T15:02:59.214Z,13.40
2018-11-23T15:05:27.917Z,13.40
2018-11-23T15:07:56.576Z,13.40
2018-11-23T15:10:26.372Z,13.40
2018-11-23T15:12:57.245Z,13.30
2018-11-23T15:15:27.384Z,13.30
2018-11-23T15:17:56.531Z,13.20
2018-11-23T15:20:29.652Z,13.20
2018-11-23T15:23:00.011Z,13.10
2018-11-23T15:25:29.657Z,13.10
2018-11-23T15:27:58.279Z,13.10
2018-11-23T15:30:32.029Z,13.10
2018-11-23T15:33:00.921Z,13.10
2018-11-23T15:35:30.597Z,13.10
2018-11-23T15:37:59.262Z,13.10
2018-11-23T15:40:28.785Z,13.00
2018-11-23T15:42:59.909Z,13.00
2018-11-23T15:45:29.715Z,12.90
2018-11-23T15:47:59.162Z,12.90
2018-11-23T15:50:29.533Z,12.90
2018-11-23T15:52:58.045Z,12.80
2018-11-23T15:55:28.498Z,12.80
2018-11-23T15:57:59.129Z,12.80
2018-11-23T16:00:29.977Z,12.70
2018-11-23T16:02:58.639Z,12.70
2018-11-23T16:05:27.259Z,12.70
2018-11-23T16:07:58.788Z,12.70
2018-11-23T16:10:28.967Z,12.70
2018-11-23T16:13:18.596Z,12.70
2018-11-23T16:15:47.185Z,12.60
2018-11-23T16:18:16.949Z,12.60
2018-11-23T16:20:46.518Z,12.60
2018-11-23T16:23:18.931Z,12.60
2018-11-23T16:25:48.103Z,12.60
2018-11-23T16:28:17.961Z,12.60
2018-11-23T16:30:48.938Z,12.60
2018-11-23T16:33:20.033Z,12.60
2018-11-23T16:35:48.640Z,12.50
2018-11-23T16:38:18.693Z,12.50
2018-11-23T16:40:53.920Z,12.50
2018-11-23T16:43:23.349Z,12.50
2018-11-23T16:45:52.843Z,12.40
2018-11-23T16:48:21.849Z,12.40
2018-11-23T16:50:50.752Z,12.40
2018-11-23T16:53:19.402Z,12.40
2018-11-23T16:55:50.484Z,12.30
2018-11-23T16:58:19.864Z,12.30
2018-11-23T17:00:51.328Z,12.30
2018-11-23T17:03:21.439Z,12.30
2018-11-23T17:05:52.501Z,12.30
2018-11-23T17:08:21.457Z,12.20
2018-11-23T17:10:51.887Z,12.20
2018-11-23T17:13:21.897Z,12.10
2018-11-23T17:15:50.544Z,12.10
2018-11-23T17:18:23.117Z,12.10
2018-11-23T17:20:51.722Z,12.10
2018-11-23T17:23:20.484Z,12.10
2018-11-23T17:25:52.089Z,12.10
2018-11-23T17:28:20.829Z,12.10
2018-11-23T17:30:49.509Z,12.10
2018-11-23T17:33:26.948Z,12.00
2018-11-23T17:35:56.304Z,12.00
2018-11-23T17:38:25.713Z,11.90
2018-11-23T17:40:56.339Z,11.90
2018-11-23T17:43:26.229Z,11.90
2018-11-23T17:45:55.396Z,11.80
2018-11-23T17:48:24.258Z,11.80
2018-11-23T17:50:55.239Z,11.80
2018-11-23T17:53:24.293Z,11.80
2018-11-23T17:55:53.241Z,11.80
2018-11-23T17:58:21.871Z,11.80
2018-11-23T18:00:50.903Z,11.90
2018-11-23T18:03:20.709Z,12.00
2018-11-23T18:05:50.665Z,12.00
2018-11-23T18:08:19.488Z,12.00
2018-11-23T18:10:48.243Z,12.00
2018-11-23T18:13:17.488Z,12.00
2018-11-23T18:15:46.415Z,12.00
2018-11-23T18:18:35.423Z,12.00
2018-11-23T18:21:04.254Z,12.00
2018-11-23T18:23:32.929Z,12.00
2018-11-23T18:26:05.009Z,11.90
2018-11-23T18:28:33.644Z,11.90
2018-11-23T18:31:02.264Z,11.80
2018-11-23T18:33:30.942Z,11.80
2018-11-23T18:36:00.515Z,11.70
2018-11-23T18:38:29.996Z,11.70
2018-11-23T18:41:01.452Z,11.70
2018-11-23T18:43:33.844Z,11.60
2018-11-23T18:49:09.447Z,11.50
2018-11-23T18:51:39.050Z,11.50
2018-11-23T18:54:17.780Z,11.40
2018-11-23T18:56:46.731Z,11.50
2018-11-23T18:59:21.504Z,11.40
2018-11-23T19:01:50.333Z,11.30
2018-11-23T19:04:19.389Z,11.30
2018-11-23T19:06:48.102Z,11.20
2018-11-23T19:09:16.850Z,11.20
2018-11-23T19:11:45.579Z,11.20
2018-11-23T19:14:15.175Z,11.10
2018-11-23T19:16:48.628Z,11.10
2018-11-23T19:19:17.526Z,11.10
2018-11-23T19:21:46.935Z,11.10
2018-11-23T19:24:15.552Z,11.10
2018-11-23T19:26:44.854Z,11.00
2018-11-23T19:29:13.436Z,11.00
2018-11-23T19:31:46.160Z,11.00
2018-11-23T19:34:14.903Z,11.10
2018-11-23T19:36:46.157Z,11.00
2018-11-23T19:39:18.062Z,10.90
2018-11-23T19:41:46.789Z,11.00
2018-11-23T19:44:15.744Z,11.00
2018-11-23T19:46:44.839Z,11.00
2018-11-23T19:49:13.681Z,10.90
2018-11-23T19:51:42.312Z,11.00
2018-11-23T19:54:10.908Z,10.90
2018-11-23T19:56:42.777Z,10.90
2018-11-23T19:59:11.591Z,10.90
2018-11-23T20:01:40.430Z,10.90
2018-11-23T20:04:09.125Z,10.80
2018-11-23T20:06:42.682Z,10.80
2018-11-23T20:09:10.151Z,10.70
2018-11-23T20:11:40.174Z,10.70
2018-11-23T20:14:08.854Z,10.70
2018-11-23T20:16:37.401Z,10.70
2018-11-23T20:19:06.965Z,10.60
2018-11-23T20:21:35.686Z,10.70
2018-11-23T20:24:05.710Z,10.60
2018-11-23T20:26:58.974Z,10.50
2018-11-23T20:29:37.631Z,10.50
2018-11-23T20:32:06.654Z,10.40
2018-11-23T20:34:35.223Z,10.40
2018-11-23T20:37:04.037Z,10.40
2018-11-23T20:39:33.763Z,10.40
2018-11-23T20:48:15.185Z,10.40
2018-11-23T20:50:43.840Z,10.40
2018-11-23T20:53:12.556Z,10.40
2018-11-23T20:55:41.212Z,10.30
2018-11-23T20:58:11.360Z,10.30
2018-11-23T21:00:40.248Z,10.30
2018-11-23T21:03:08.997Z,10.20
2018-11-23T21:05:37.732Z,10.20
2018-11-23T21:08:07.135Z,10.10
2018-11-23T21:10:35.818Z,10.10
2018-11-23T21:13:04.650Z,10.20
2018-11-23T21:15:34.150Z,10.10
2018-11-23T21:18:05.301Z,10.10
2018-11-23T21:20:34.545Z,10.10
2018-11-23T21:23:03.041Z,10.00
2018-11-23T21:25:31.576Z,9.90
2018-11-23T21:28:00.104Z,9.90
2018-11-23T21:30:31.056Z,9.80
2018-11-23T21:32:59.828Z,9.80
2018-11-23T21:36:07.825Z,9.90
2018-11-23T21:38:47.169Z,9.80
2018-11-23T21:41:16.848Z,9.80
2018-11-23T21:43:47.535Z,9.80
2018-11-23T21:46:16.784Z,9.90
2018-11-23T21:48:46.316Z,9.90
2018-11-23T21:51:15.997Z,10.00
2018-11-23T21:53:44.632Z,10.00
2018-11-23T21:56:13.467Z,10.00
2018-11-23T21:58:42.802Z,10.00
2018-11-23T22:01:12.126Z,10.00
2018-11-23T22:03:43.938Z,10.00
2018-11-23T22:06:12.670Z,9.90
2018-11-23T22:08:41.496Z,10.00
2018-11-23T22:11:10.384Z,9.90
2018-11-23T22:13:39.072Z,9.90
2018-11-23T22:16:07.875Z,9.90
2018-11-23T22:18:36.561Z,9.80
2018-11-23T22:21:06.185Z,9.80
2018-11-23T22:23:35.512Z,9.70
2018-11-23T22:26:14.435Z,9.60
2018-11-23T22:28:42.997Z,9.60
2018-11-23T22:31:12.544Z,9.60
2018-11-23T22:33:41.118Z,9.60
2018-11-23T22:36:10.402Z,9.60
2018-11-23T22:38:39.048Z,9.70
2018-11-23T22:41:08.249Z,9.70
2018-11-23T22:43:38.002Z,9.70
2018-11-23T22:46:07.452Z,9.70
2018-11-23T22:48:38.823Z,9.70
2018-11-23T22:51:08.388Z,9.60
2018-11-23T22:53:38.246Z,9.60
2018-11-23T22:56:07.472Z,9.60
2018-11-23T22:58:39.364Z,9.60
2018-11-23T23:01:08.598Z,9.60
2018-11-23T23:03:39.787Z,9.60
2018-11-23T23:06:11.334Z,9.70
2018-11-23T23:08:41.475Z,9.60
2018-11-23T23:11:13.021Z,9.60
2018-11-23T23:13:49.061Z,9.60
2018-11-23T23:16:19.759Z,9.60
2018-11-23T23:19:04.905Z,9.60
2018-11-23T23:21:34.045Z,9.70
2018-11-23T23:24:11.342Z,9.70
2018-11-23T23:26:32.706Z,9.60
2018-11-23T23:29:01.363Z,9.60
2018-11-23T23:31:30.052Z,9.60
2018-11-23T23:33:59.642Z,9.60
2018-11-23T23:36:28.247Z,9.60
2018-11-23T23:38:56.839Z,9.60
2018-11-23T23:41:25.484Z,9.60
2018-11-23T23:43:54.778Z,9.60
2018-11-23T23:46:24.018Z,9.60
2018-11-23T23:48:52.594Z,9.60
2018-11-23T23:51:21.486Z,9.50
2018-11-23T23:53:50.037Z,9.50
2018-11-23T23:56:18.821Z,9.40
2018-11-23T23:58:48.594Z,9.50
